Time;durP1;ratioP1;P1;durP2;ratioP2;P2;SDS_P1;SDS_P2;PMS_P1;PMS_P2;Temp;Humidity;BMP_temperature;BMP_pressure;BME280_temperature;BME280_humidity;BME280_pressure;Samples;Min_cycle;Max_cycle;Signal;HPM_P1;HPM_P2
2022/05/19 00:03:27;;;;;;;1999.90;682.50;;;;;;;;;;6332863;22;20765;-86
2022/05/19 00:05:53;;;;;;;1999.90;696.07;;;;;;;;;;6333110;22;20348;-87
2022/05/19 00:08:19;;;;;;;1999.90;675.35;;;;;;;;;;6333504;22;20356;-86
2022/05/19 00:10:45;;;;;;;1999.90;653.22;;;;;;;;;;6333035;22;20345;-87
2022/05/19 00:13:12;;;;;;;1999.90;666.20;;;;;;;;;;6332866;22;20344;-87
2022/05/19 00:15:38;;;;;;;1999.90;666.92;;;;;;;;;;6333072;22;20351;-88
2022/05/19 00:18:04;;;;;;;1999.90;663.80;;;;;;;;;;6307109;22;20403;-86
2022/05/19 00:20:30;;;;;;;1999.90;672.00;;;;;;;;;;6333301;22;20376;-88
2022/05/19 00:22:56;;;;;;;1999.90;674.70;;;;;;;;;;6333140;22;20365;-86
2022/05/19 00:25:22;;;;;;;1999.90;657.42;;;;;;;;;;6332861;22;20481;-87
2022/05/19 00:27:48;;;;;;;1999.90;655.00;;;;;;;;;;6332684;22;20341;-87
2022/05/19 00:30:14;;;;;;;1999.90;643.88;;;;;;;;;;6306425;22;20011;-87
2022/05/19 00:32:40;;;;;;;1999.90;662.53;;;;;;;;;;6305147;22;20349;-87
2022/05/19 00:35:06;;;;;;;1999.90;679.28;;;;;;;;;;6306290;22;20386;-90
2022/05/19 00:37:33;;;;;;;1999.90;655.85;;;;;;;;;;6332425;22;20860;-87
2022/05/19 00:39:59;;;;;;;1999.90;658.08;;;;;;;;;;6332672;22;20345;-86
2022/05/19 00:42:43;;;;;;;1999.90;668.50;;;;;;;;;;6332729;22;20801;-87
2022/05/19 00:45:11;;;;;;;1999.90;672.38;;;;;;;;;;6305071;22;20432;-86
2022/05/19 00:47:42;;;;;;;1999.90;667.47;;;;;;;;;;6306453;22;20348;-91
2022/05/19 00:50:12;;;;;;;1999.90;660.03;;;;;;;;;;6333856;22;20426;-87
2022/05/19 00:52:39;;;;;;;1971.28;641.33;;;;;;;;;;6307613;22;20335;-87
2022/05/19 00:55:26;;;;;;;1999.90;675.60;;;;;;;;;;6333506;22;20667;-91
2022/05/19 00:57:55;;;;;;;1999.90;681.05;;;;;;;;;;6304949;22;20360;-87
2022/05/19 01:00:22;;;;;;;1999.90;681.75;;;;;;;;;;6332236;22;20373;-86
2022/05/19 01:02:56;;;;;;;1999.90;676.88;;;;;;;;;;6332459;22;20368;-86
2022/05/19 01:05:22;;;;;;;1999.90;674.38;;;;;;;;;;6332258;22;20401;-88
2022/05/19 01:07:50;;;;;;;1999.90;670.00;;;;;;;;;;6332213;22;20369;-87
2022/05/19 01:10:16;;;;;;;1999.90;680.03;;;;;;;;;;6332357;22;20357;-88
2022/05/19 01:12:46;;;;;;;1999.90;659.92;;;;;;;;;;6304631;22;20825;-87
2022/05/19 01:15:12;;;;;;;1999.90;668.45;;;;;;;;;;6332613;22;20349;-87
2022/05/19 01:17:38;;;;;;;1999.90;664.17;;;;;;;;;;6334713;22;20038;-87
2022/05/19 01:20:15;;;;;;;1999.90;693.80;;;;;;;;;;6332769;22;20341;-86
2022/05/19 01:22:56;;;;;;;1999.90;692.15;;;;;;;;;;6333371;22;20372;-86
2022/05/19 01:25:25;;;;;;;1999.90;678.47;;;;;;;;;;6332658;22;20951;-87
2022/05/19 01:27:51;;;;;;;1999.90;676.40;;;;;;;;;;6332454;22;20333;-91
2022/05/19 01:30:18;;;;;;;1999.90;671.08;;;;;;;;;;6332696;22;20353;-90
2022/05/19 01:32:43;;;;;;;1999.90;668.85;;;;;;;;;;6305031;22;20345;-89
2022/05/19 01:35:10;;;;;;;1999.90;673.10;;;;;;;;;;6333678;22;20349;-92
2022/05/19 01:37:36;;;;;;;1999.90;676.45;;;;;;;;;;6333238;22;20440;-87
2022/05/19 01:40:28;;;;;;;1999.90;677.58;;;;;;;;;;6304738;22;20668;-87
2022/05/19 01:43:10;;;;;;;1999.90;658.10;;;;;;;;;;6325550;22;20375;-88
2022/05/19 01:45:40;;;;;;;1999.90;658.85;;;;;;;;;;6334467;22;19999;-88
2022/05/19 01:48:24;;;;;;;1999.90;687.87;;;;;;;;;;6332062;22;20387;-86
2022/05/19 01:51:09;;;;;;;1999.90;686.03;;;;;;;;;;6332371;22;20436;-86
2022/05/19 01:53:35;;;;;;;1999.90;683.55;;;;;;;;;;6331987;22;20353;-88
2022/05/19 01:56:14;;;;;;;1999.90;686.67;;;;;;;;;;6333184;22;20423;-89
2022/05/19 01:59:05;;;;;;;1999.90;689.20;;;;;;;;;;6333898;22;20404;-86
2022/05/19 02:01:31;;;;;;;1999.90;680.75;;;;;;;;;;6312583;22;20505;-89
2022/05/19 02:04:23;;;;;;;1999.90;675.75;;;;;;;;;;6331573;22;20376;-87
2022/05/19 02:06:51;;;;;;;1999.90;685.22;;;;;;;;;;6297743;22;20341;-87
2022/05/19 02:09:18;;;;;;;1999.90;693.58;;;;;;;;;;6333768;22;20438;-87
2022/05/19 02:11:49;;;;;;;1999.90;711.40;;;;;;;;;;6332342;22;20341;-86
2022/05/19 02:14:17;;;;;;;1999.90;711.30;;;;;;;;;;6331909;22;20374;-85
2022/05/19 02:16:44;;;;;;;1999.90;719.67;;;;;;;;;;6305382;22;20358;-85
2022/05/19 02:19:11;;;;;;;1999.90;709.63;;;;;;;;;;6333042;22;20390;-88
2022/05/19 02:21:37;;;;;;;1999.90;721.85;;;;;;;;;;6332581;22;20440;-92
2022/05/19 02:24:03;;;;;;;1999.90;714.05;;;;;;;;;;6332818;22;20414;-86
2022/05/19 02:26:33;;;;;;;1999.90;708.20;;;;;;;;;;6331860;22;20368;-89
2022/05/19 02:29:02;;;;;;;1999.90;703.28;;;;;;;;;;6332400;22;20353;-89
2022/05/19 02:31:28;;;;;;;1999.90;710.08;;;;;;;;;;6332861;22;20471;-89
2022/05/19 02:33:54;;;;;;;1999.90;696.00;;;;;;;;;;6332260;22;20394;-93
2022/05/19 02:36:20;;;;;;;1999.90;698.55;;;;;;;;;;6334144;22;20349;-91
2022/05/19 02:38:46;;;;;;;1999.90;699.22;;;;;;;;;;6334121;22;20813;-91
2022/05/19 02:41:12;;;;;;;1999.90;706.90;;;;;;;;;;6305132;22;20345;-87
2022/05/19 02:43:38;;;;;;;1999.90;703.80;;;;;;;;;;6331696;22;20379;-86
2022/05/19 02:46:05;;;;;;;1999.90;697.65;;;;;;;;;;6332956;22;20832;-88
2022/05/19 02:48:32;;;;;;;1999.90;696.05;;;;;;;;;;6304222;22;20749;-87
2022/05/19 02:50:59;;;;;;;1999.90;692.58;;;;;;;;;;6332047;22;20337;-87
2022/05/19 02:53:25;;;;;;;1999.90;689.78;;;;;;;;;;6303961;22;20766;-88
2022/05/19 02:55:51;;;;;;;1999.90;685.85;;;;;;;;;;6331480;22;20686;-87
2022/05/19 02:58:17;;;;;;;1999.90;693.58;;;;;;;;;;6332282;22;20832;-89
2022/05/19 03:00:45;;;;;;;1999.90;697.88;;;;;;;;;;6306720;22;21180;-89
2022/05/19 03:03:11;;;;;;;1999.90;687.20;;;;;;;;;;6333978;22;20398;-87
2022/05/19 03:05:37;;;;;;;1999.90;693.60;;;;;;;;;;6333842;22;20336;-87
2022/05/19 03:08:03;;;;;;;1999.90;693.53;;;;;;;;;;6333777;22;20360;-87
2022/05/19 03:10:29;;;;;;;1999.90;700.03;;;;;;;;;;6333749;22;20336;-89
2022/05/19 03:12:56;;;;;;;1999.90;688.87;;;;;;;;;;6334436;22;20364;-87
2022/05/19 03:15:22;;;;;;;1999.90;680.17;;;;;;;;;;6306181;22;20353;-87
2022/05/19 03:17:48;;;;;;;1999.90;681.85;;;;;;;;;;6334228;22;20395;-87
2022/05/19 03:20:15;;;;;;;1999.90;693.22;;;;;;;;;;6334426;22;20349;-87
2022/05/19 03:22:41;;;;;;;1999.90;702.17;;;;;;;;;;6333246;22;20372;-86
2022/05/19 03:25:07;;;;;;;1999.90;686.10;;;;;;;;;;6333552;22;20578;-86
2022/05/19 03:27:34;;;;;;;1999.90;678.35;;;;;;;;;;6333612;22;20343;-87
2022/05/19 03:30:00;;;;;;;1999.90;685.75;;;;;;;;;;6332851;22;20809;-86
2022/05/19 03:32:26;;;;;;;1999.90;673.50;;;;;;;;;;6333699;22;20435;-86
2022/05/19 03:34:53;;;;;;;1999.90;674.58;;;;;;;;;;6333088;22;20341;-88
2022/05/19 03:37:19;;;;;;;1999.90;670.10;;;;;;;;;;6332817;22;20332;-87
2022/05/19 03:39:45;;;;;;;1999.90;678.28;;;;;;;;;;6334086;22;20345;-87
2022/05/19 03:42:11;;;;;;;1999.90;682.87;;;;;;;;;;6333207;22;20405;-87
2022/05/19 03:44:37;;;;;;;1999.90;689.80;;;;;;;;;;6332881;22;20373;-88
2022/05/19 03:47:03;;;;;;;1999.90;684.17;;;;;;;;;;6333898;22;20337;-86
2022/05/19 03:49:30;;;;;;;1999.90;686.13;;;;;;;;;;6345388;22;20352;-85
2022/05/19 03:51:56;;;;;;;1999.90;673.42;;;;;;;;;;6348949;22;20364;-85
2022/05/19 03:54:22;;;;;;;1999.90;676.33;;;;;;;;;;6346145;22;20337;-86
2022/05/19 03:56:48;;;;;;;1999.90;676.03;;;;;;;;;;6336739;22;20341;-85
2022/05/19 03:59:14;;;;;;;1999.90;664.58;;;;;;;;;;6334682;22;20345;-85
2022/05/19 04:01:40;;;;;;;1999.90;678.00;;;;;;;;;;6333520;22;20391;-84
2022/05/19 04:04:06;;;;;;;1999.90;676.07;;;;;;;;;;6305530;22;20709;-87
2022/05/19 04:06:34;;;;;;;1999.90;687.83;;;;;;;;;;6332915;22;20327;-91
2022/05/19 04:09:00;;;;;;;1999.90;685.38;;;;;;;;;;6332807;22;20356;-89
2022/05/19 04:11:26;;;;;;;1999.90;689.05;;;;;;;;;;6332675;22;20344;-89
2022/05/19 04:13:53;;;;;;;1999.90;682.63;;;;;;;;;;6333835;22;20345;-87
2022/05/19 04:16:19;;;;;;;1999.90;683.28;;;;;;;;;;6334994;22;20337;-88
2022/05/19 04:18:45;;;;;;;1999.90;670.58;;;;;;;;;;6333571;22;20902;-87
2022/05/19 04:21:12;;;;;;;1999.90;671.60;;;;;;;;;;6326643;22;20837;-86
2022/05/19 04:23:38;;;;;;;1999.90;671.70;;;;;;;;;;6331009;22;20373;-83
2022/05/19 04:26:04;;;;;;;1999.90;677.33;;;;;;;;;;6331329;22;20420;-84
2022/05/19 04:28:30;;;;;;;1999.90;668.00;;;;;;;;;;6331402;22;20821;-88
2022/05/19 04:30:56;;;;;;;1999.90;671.00;;;;;;;;;;6331252;22;20333;-84
2022/05/19 04:33:22;;;;;;;1999.90;654.85;;;;;;;;;;6331263;22;20420;-85
2022/05/19 04:35:48;;;;;;;1999.90;647.97;;;;;;;;;;6332560;22;20402;-84
2022/05/19 04:38:16;;;;;;;1998.18;661.35;;;;;;;;;;6334314;22;20007;-86
2022/05/19 04:40:43;;;;;;;1999.90;698.53;;;;;;;;;;6334191;22;20360;-88
2022/05/19 04:43:10;;;;;;;1999.90;694.25;;;;;;;;;;6332370;22;20380;-88
2022/05/19 04:45:36;;;;;;;1999.90;707.70;;;;;;;;;;6332896;22;20337;-88
2022/05/19 04:48:03;;;;;;;1999.90;692.97;;;;;;;;;;6307994;22;20403;-88
2022/05/19 04:50:29;;;;;;;1999.90;700.83;;;;;;;;;;6334340;22;20824;-87
2022/05/19 04:52:58;;;;;;;1999.90;688.40;;;;;;;;;;6306950;22;20375;-85
2022/05/19 04:55:25;;;;;;;1999.90;699.35;;;;;;;;;;6337213;22;20344;-85
2022/05/19 04:57:51;;;;;;;1999.90;695.07;;;;;;;;;;6336320;22;20350;-86
2022/05/19 05:00:18;;;;;;;1999.90;700.35;;;;;;;;;;6335593;22;20342;-89
2022/05/19 05:02:44;;;;;;;1999.90;680.50;;;;;;;;;;6306656;22;20377;-85
2022/05/19 05:05:10;;;;;;;1999.90;673.70;;;;;;;;;;6333996;22;20371;-86
2022/05/19 05:07:36;;;;;;;1999.90;679.63;;;;;;;;;;6334050;22;20333;-87
2022/05/19 05:10:03;;;;;;;1999.90;694.90;;;;;;;;;;6334771;22;20939;-88
2022/05/19 05:12:30;;;;;;;1999.90;679.08;;;;;;;;;;6309769;22;20821;-86
2022/05/19 05:14:57;;;;;;;1999.90;682.63;;;;;;;;;;6335574;22;20831;-87
2022/05/19 05:17:23;;;;;;;1999.90;689.58;;;;;;;;;;6333819;22;20428;-87
2022/05/19 05:19:49;;;;;;;1999.90;686.03;;;;;;;;;;6334481;22;20368;-85
2022/05/19 05:22:15;;;;;;;1999.90;689.80;;;;;;;;;;6333425;22;20338;-90
2022/05/19 05:24:42;;;;;;;1999.90;678.58;;;;;;;;;;6332910;22;20459;-91
2022/05/19 05:27:08;;;;;;;1999.90;682.30;;;;;;;;;;6332862;22;20372;-90
2022/05/19 05:29:34;;;;;;;1999.90;688.67;;;;;;;;;;6332651;22;20345;-88
2022/05/19 05:32:01;;;;;;;1999.90;681.45;;;;;;;;;;6304622;22;20368;-91
2022/05/19 05:34:27;;;;;;;1999.90;685.63;;;;;;;;;;6332761;22;20333;-90
2022/05/19 05:36:53;;;;;;;1999.90;677.65;;;;;;;;;;6333313;22;20377;-88
2022/05/19 05:39:19;;;;;;;1999.90;671.47;;;;;;;;;;6333792;22;20689;-91
2022/05/19 05:41:46;;;;;;;1999.90;669.83;;;;;;;;;;6332740;22;20345;-87
2022/05/19 05:44:12;;;;;;;1999.90;670.30;;;;;;;;;;6332196;22;20452;-91
2022/05/19 05:46:38;;;;;;;1999.90;671.15;;;;;;;;;;6332518;22;20341;-90
2022/05/19 05:49:04;;;;;;;1999.90;678.45;;;;;;;;;;6332244;22;20341;-87
2022/05/19 05:51:30;;;;;;;1999.90;675.20;;;;;;;;;;6332375;22;20341;-86
2022/05/19 05:53:56;;;;;;;1999.90;668.37;;;;;;;;;;6332324;22;20352;-89
2022/05/19 05:56:23;;;;;;;1999.90;670.20;;;;;;;;;;6305891;22;20356;-88
2022/05/19 05:58:49;;;;;;;1999.90;671.60;;;;;;;;;;6332506;22;20420;-91
2022/05/19 06:01:16;;;;;;;1999.90;669.37;;;;;;;;;;6332247;22;20620;-89
2022/05/19 06:03:42;;;;;;;1999.90;673.50;;;;;;;;;;6332543;22;20409;-89
2022/05/19 06:06:08;;;;;;;1999.90;658.15;;;;;;;;;;6332795;22;20796;-90
2022/05/19 06:08:34;;;;;;;1999.90;678.08;;;;;;;;;;6334461;22;20074;-89
2022/05/19 06:11:01;;;;;;;1999.90;718.35;;;;;;;;;;6304742;22;20416;-88
2022/05/19 06:13:27;;;;;;;1999.90;724.95;;;;;;;;;;6332129;22;20337;-91
2022/05/19 06:15:54;;;;;;;1999.90;724.22;;;;;;;;;;6305764;22;20689;-88
2022/05/19 06:18:20;;;;;;;1999.90;720.85;;;;;;;;;;6305285;22;20337;-89
2022/05/19 06:20:46;;;;;;;1999.90;722.33;;;;;;;;;;6332500;22;20859;-90
2022/05/19 06:23:12;;;;;;;1999.90;717.00;;;;;;;;;;6332342;22;20454;-89
2022/05/19 06:25:38;;;;;;;1999.90;722.53;;;;;;;;;;6332756;22;20344;-88
2022/05/19 06:28:04;;;;;;;1999.90;718.93;;;;;;;;;;6340221;22;20344;-87
2022/05/19 06:30:31;;;;;;;1999.90;718.95;;;;;;;;;;6345192;22;20344;-87
2022/05/19 06:32:57;;;;;;;1999.90;721.90;;;;;;;;;;6352235;22;20340;-86
2022/05/19 06:35:27;;;;;;;1999.90;716.38;;;;;;;;;;6323969;22;20357;-88
2022/05/19 06:37:53;;;;;;;1999.90;719.78;;;;;;;;;;6335838;22;20374;-90
2022/05/19 06:40:20;;;;;;;1999.90;721.23;;;;;;;;;;6331972;22;20341;-88
2022/05/19 06:42:46;;;;;;;1999.90;720.15;;;;;;;;;;6331861;22;20347;-92
2022/05/19 06:45:14;;;;;;;1999.90;714.30;;;;;;;;;;6331888;22;20402;-88
2022/05/19 06:47:40;;;;;;;1999.90;711.60;;;;;;;;;;6332105;22;20344;-88
2022/05/19 06:50:08;;;;;;;1999.90;709.92;;;;;;;;;;6332057;22;20345;-86
2022/05/19 06:52:41;;;;;;;1999.90;716.00;;;;;;;;;;6332005;22;20329;-87
2022/05/19 06:55:07;;;;;;;1999.90;717.88;;;;;;;;;;6332472;22;20524;-86
2022/05/19 06:57:33;;;;;;;1999.90;709.95;;;;;;;;;;6331832;22;20432;-87
2022/05/19 06:59:59;;;;;;;1999.90;706.83;;;;;;;;;;6304243;22;20353;-86
2022/05/19 07:02:25;;;;;;;1999.90;701.70;;;;;;;;;;6332913;22;20673;-89
2022/05/19 07:04:52;;;;;;;1999.90;715.38;;;;;;;;;;6331765;22;20373;-85
2022/05/19 07:07:18;;;;;;;1999.90;709.42;;;;;;;;;;6304067;22;20716;-87
2022/05/19 07:09:44;;;;;;;1999.90;711.65;;;;;;;;;;6331753;22;20341;-88
2022/05/19 07:12:11;;;;;;;1999.90;712.33;;;;;;;;;;6331967;22;20341;-92
2022/05/19 07:14:38;;;;;;;1999.90;708.22;;;;;;;;;;6332335;22;20716;-89
2022/05/19 07:17:04;;;;;;;1999.90;712.00;;;;;;;;;;6332059;22;20391;-87
2022/05/19 07:22:19;;;;;;;1999.90;706.00;;;;;;;;;;6331655;22;20894;-86
2022/05/19 07:24:45;;;;;;;1999.90;704.70;;;;;;;;;;6332137;22;20455;-90
2022/05/19 07:27:12;;;;;;;1999.90;705.03;;;;;;;;;;6332679;22;20821;-94
2022/05/19 07:29:38;;;;;;;1999.90;705.42;;;;;;;;;;6332352;22;20345;-90
2022/05/19 07:32:05;;;;;;;1999.90;704.28;;;;;;;;;;6332055;22;20341;-89
2022/05/19 07:34:32;;;;;;;1999.90;705.40;;;;;;;;;;6332448;22;20337;-90
2022/05/19 07:36:58;;;;;;;1999.90;706.75;;;;;;;;;;6335374;22;20827;-88
2022/05/19 07:39:24;;;;;;;1999.90;705.08;;;;;;;;;;6331524;22;20341;-87
2022/05/19 07:41:53;;;;;;;1999.90;709.38;;;;;;;;;;6331609;22;20607;-89
2022/05/19 07:44:19;;;;;;;1999.90;698.22;;;;;;;;;;6331595;22;20923;-86
2022/05/19 07:46:45;;;;;;;1999.90;702.05;;;;;;;;;;6333009;22;20333;-88
2022/05/19 07:49:12;;;;;;;1999.90;707.42;;;;;;;;;;6333604;22;20346;-90
2022/05/19 07:51:40;;;;;;;1999.90;711.40;;;;;;;;;;6333571;22;20344;-92
2022/05/19 07:54:14;;;;;;;1999.90;704.47;;;;;;;;;;6333783;22;20834;-90
2022/05/19 07:56:41;;;;;;;1999.90;689.75;;;;;;;;;;6306093;22;20677;-92
2022/05/19 07:59:08;;;;;;;1999.90;685.38;;;;;;;;;;6333828;22;20416;-87
2022/05/19 08:01:34;;;;;;;1999.90;688.85;;;;;;;;;;6334878;22;19998;-88
2022/05/19 08:04:01;;;;;;;1999.90;716.50;;;;;;;;;;6334373;22;20372;-90
2022/05/19 08:06:30;;;;;;;1999.90;717.25;;;;;;;;;;6334509;22;20826;-90
2022/05/19 08:08:58;;;;;;;1999.90;714.58;;;;;;;;;;6334025;22;20398;-88
2022/05/19 08:11:24;;;;;;;1999.90;722.40;;;;;;;;;;6305818;22;20398;-89
2022/05/19 08:16:35;;;;;;;1999.90;709.78;;;;;;;;;;6333680;22;20794;-94
2022/05/19 08:19:02;;;;;;;1999.90;706.83;;;;;;;;;;6334538;22;20681;-90
2022/05/19 08:21:28;;;;;;;1999.90;708.45;;;;;;;;;;6334911;22;20340;-89
2022/05/19 08:23:54;;;;;;;1999.90;702.33;;;;;;;;;;6333293;22;20931;-92
2022/05/19 08:26:21;;;;;;;1999.90;715.25;;;;;;;;;;6333903;22;20338;-88
2022/05/19 08:28:48;;;;;;;1999.90;714.40;;;;;;;;;;6333729;22;20348;-88
2022/05/19 08:31:16;;;;;;;1999.90;712.40;;;;;;;;;;6334209;22;20360;-89
2022/05/19 08:33:43;;;;;;;1999.90;708.53;;;;;;;;;;6334158;22;20415;-88
2022/05/19 08:36:10;;;;;;;1999.90;715.10;;;;;;;;;;6333539;22;20472;-88
2022/05/19 08:38:36;;;;;;;1999.90;711.42;;;;;;;;;;6334137;22;20356;-87
2022/05/19 08:41:07;;;;;;;1999.90;705.72;;;;;;;;;;6334194;22;20333;-87
2022/05/19 08:43:42;;;;;;;1999.90;705.37;;;;;;;;;;6334259;22;20697;-87
2022/05/19 08:46:10;;;;;;;1999.90;717.65;;;;;;;;;;6333712;22;20349;-90
2022/05/19 08:48:36;;;;;;;1999.90;704.38;;;;;;;;;;6334345;22;20333;-88
2022/05/19 08:51:07;;;;;;;1999.90;697.30;;;;;;;;;;6336855;22;19962;-88
2022/05/19 08:53:36;;;;;;;1999.90;711.03;;;;;;;;;;6307205;22;20368;-88
2022/05/19 08:56:11;;;;;;;1999.90;712.63;;;;;;;;;;6334646;22;20376;-88
2022/05/19 08:58:55;;;;;;;1999.90;713.45;;;;;;;;;;6332500;22;20399;-87
2022/05/19 09:01:21;;;;;;;1999.90;719.42;;;;;;;;;;6333458;22;20868;-88
2022/05/19 09:03:56;;;;;;;1999.90;720.10;;;;;;;;;;6333054;22;20369;-89
2022/05/19 09:06:28;;;;;;;1999.90;718.92;;;;;;;;;;6333251;22;20403;-90
2022/05/19 09:08:59;;;;;;;1999.90;719.05;;;;;;;;;;6333688;22;20426;-88
2022/05/19 09:11:38;;;;;;;1999.90;726.50;;;;;;;;;;6334430;22;20341;-90
2022/05/19 09:14:17;;;;;;;1999.90;723.03;;;;;;;;;;6334743;22;20329;-88
2022/05/19 09:16:43;;;;;;;1999.90;705.03;;;;;;;;;;6332789;22;20428;-86
2022/05/19 09:19:14;;;;;;;1999.90;707.00;;;;;;;;;;6332939;22;20333;-86
2022/05/19 09:21:42;;;;;;;1999.90;714.28;;;;;;;;;;6333024;22;20394;-86
2022/05/19 09:24:11;;;;;;;1999.90;715.22;;;;;;;;;;6332354;22;20364;-86
2022/05/19 09:26:43;;;;;;;1999.90;713.83;;;;;;;;;;6304774;22;20882;-86
2022/05/19 09:29:11;;;;;;;1999.90;708.35;;;;;;;;;;6332320;22;20813;-86
2022/05/19 09:31:41;;;;;;;1999.90;703.75;;;;;;;;;;6332250;22;20393;-86
2022/05/19 09:34:08;;;;;;;1999.90;706.55;;;;;;;;;;6332464;22;20341;-86
2022/05/19 09:36:41;;;;;;;1999.90;689.17;;;;;;;;;;6333184;22;20345;-85
2022/05/19 09:39:11;;;;;;;1999.90;689.25;;;;;;;;;;6332014;22;20373;-85
2022/05/19 09:41:41;;;;;;;1999.90;684.90;;;;;;;;;;6334796;22;20006;-85
2022/05/19 09:44:12;;;;;;;1999.90;708.90;;;;;;;;;;6333487;22;20846;-86
2022/05/19 09:46:47;;;;;;;1999.90;700.28;;;;;;;;;;6305101;22;20393;-86
2022/05/19 09:49:34;;;;;;;1999.90;701.23;;;;;;;;;;6332884;22;20839;-88
2022/05/19 09:52:01;;;;;;;1999.90;706.42;;;;;;;;;;6305023;22;20889;-87
2022/05/19 09:54:32;;;;;;;1999.90;713.17;;;;;;;;;;6304970;22;20436;-88
2022/05/19 09:57:05;;;;;;;1999.90;701.22;;;;;;;;;;6306512;22;20260;-87
2022/05/19 09:59:36;;;;;;;1999.90;719.80;;;;;;;;;;6332744;22;20774;-87
2022/05/19 10:02:12;;;;;;;1999.90;721.63;;;;;;;;;;6332422;22;20686;-86
2022/05/19 10:04:42;;;;;;;1999.90;709.63;;;;;;;;;;6333319;22;20372;-87
2022/05/19 10:07:19;;;;;;;1999.90;706.20;;;;;;;;;;6332785;22;20386;-86
2022/05/19 10:09:47;;;;;;;1999.90;698.25;;;;;;;;;;6332627;22;20368;-88
2022/05/19 10:12:14;;;;;;;1999.90;702.72;;;;;;;;;;6334329;22;20450;-86
2022/05/19 10:14:41;;;;;;;1999.90;713.92;;;;;;;;;;6332242;22;20336;-87
2022/05/19 10:17:10;;;;;;;1999.90;692.13;;;;;;;;;;6334972;22;19999;-88
2022/05/19 10:19:39;;;;;;;1999.90;723.55;;;;;;;;;;6333297;22;20420;-87
2022/05/19 10:22:05;;;;;;;1999.90;712.80;;;;;;;;;;6333372;22;20345;-89
2022/05/19 10:24:40;;;;;;;1999.90;719.85;;;;;;;;;;6332443;22;20368;-87
2022/05/19 10:32:57;;;;;;;1999.90;714.95;;;;;;;;;;6332094;22;20670;-90
2022/05/19 10:35:23;;;;;;;1999.90;717.33;;;;;;;;;;6332364;22;20381;-86
2022/05/19 10:37:58;;;;;;;1999.90;720.17;;;;;;;;;;6332057;22;20348;-87
2022/05/19 10:40:28;;;;;;;1999.90;701.70;;;;;;;;;;6334196;22;20128;-87
2022/05/19 10:43:23;;;;;;;1999.90;715.28;;;;;;;;;;6332139;22;20697;-88
2022/05/19 10:45:50;;;;;;;1999.90;717.40;;;;;;;;;;6332498;22;20345;-89
2022/05/19 10:48:35;;;;;;;1999.90;705.50;;;;;;;;;;6331993;22;20348;-87
2022/05/19 10:51:07;;;;;;;1999.90;717.45;;;;;;;;;;6331812;22;20613;-87
2022/05/19 10:53:36;;;;;;;1999.90;714.90;;;;;;;;;;6332315;22;20345;-87
2022/05/19 10:56:02;;;;;;;1999.90;700.33;;;;;;;;;;6306097;22;20094;-88
2022/05/19 10:58:36;;;;;;;1999.90;720.08;;;;;;;;;;6332342;22;20368;-86
2022/05/19 11:01:03;;;;;;;1999.90;715.47;;;;;;;;;;6332096;22;20348;-87
2022/05/19 11:03:32;;;;;;;1999.90;724.33;;;;;;;;;;6331777;22;20435;-87
2022/05/19 11:06:10;;;;;;;1999.90;715.38;;;;;;;;;;6332147;22;20369;-86
2022/05/19 11:08:59;;;;;;;1999.90;721.38;;;;;;;;;;6332635;22;20407;-85
2022/05/19 11:11:28;;;;;;;1999.90;699.38;;;;;;;;;;6333638;22;20451;-87
2022/05/19 11:13:57;;;;;;;1999.90;714.90;;;;;;;;;;6331837;22;20337;-86
2022/05/19 11:16:29;;;;;;;1999.90;697.03;;;;;;;;;;6333969;22;20086;-86
2022/05/19 11:18:58;;;;;;;1999.90;716.10;;;;;;;;;;6332163;22;20337;-87
2022/05/19 11:21:30;;;;;;;1999.90;712.97;;;;;;;;;;6333303;22;20673;-88
2022/05/19 11:23:59;;;;;;;1999.90;720.17;;;;;;;;;;6334049;22;20368;-87
2022/05/19 11:26:27;;;;;;;1999.90;710.65;;;;;;;;;;6335342;22;20003;-86
2022/05/19 11:28:53;;;;;;;1999.90;731.30;;;;;;;;;;6306318;22;20758;-87
2022/05/19 11:31:25;;;;;;;1999.90;727.10;;;;;;;;;;6333710;22;20341;-90
2022/05/19 11:33:52;;;;;;;1999.90;694.63;;;;;;;;;;6335468;22;20443;-87
2022/05/19 11:36:22;;;;;;;1999.90;715.35;;;;;;;;;;6333908;22;20337;-86
2022/05/19 11:38:52;;;;;;;1999.90;724.97;;;;;;;;;;6333568;22;20406;-85
2022/05/19 11:41:20;;;;;;;1999.90;725.47;;;;;;;;;;6334283;22;20825;-86
2022/05/19 11:44:01;;;;;;;1999.90;724.33;;;;;;;;;;6333588;22;20372;-86
2022/05/19 11:46:34;;;;;;;1999.90;708.33;;;;;;;;;;6336485;22;20217;-87
2022/05/19 11:57:34;;;;;;;1999.90;714.70;;;;;;;;;;6334969;22;20816;-87
2022/05/19 12:00:01;;;;;;;1999.90;718.65;;;;;;;;;;6307955;22;20002;-87
2022/05/19 12:02:37;;;;;;;1999.90;725.67;;;;;;;;;;6334315;22;20333;-87
2022/05/19 12:05:12;;;;;;;1999.90;726.55;;;;;;;;;;6333576;22;20375;-90
2022/05/19 12:07:45;;;;;;;1999.90;705.13;;;;;;;;;;6307427;22;20002;-85
2022/05/19 12:10:15;;;;;;;1999.90;719.67;;;;;;;;;;6334823;22;20341;-85
2022/05/19 12:12:44;;;;;;;1999.90;722.70;;;;;;;;;;6335889;22;20341;-88
2022/05/19 12:15:17;;;;;;;1999.90;702.08;;;;;;;;;;6336363;22;20070;-89
2022/05/19 12:17:46;;;;;;;1999.90;720.78;;;;;;;;;;6334852;22;20380;-86
2022/05/19 12:20:30;;;;;;;1999.90;718.45;;;;;;;;;;6337291;22;19994;-90
2022/05/19 12:23:13;;;;;;;1999.90;713.65;;;;;;;;;;6334537;22;20357;-88
2022/05/19 12:25:43;;;;;;;1999.90;702.90;;;;;;;;;;6338963;22;20026;-87
2022/05/19 12:28:11;;;;;;;1999.90;718.70;;;;;;;;;;6334221;22;20481;-88
2022/05/19 12:33:32;;;;;;;1999.90;719.20;;;;;;;;;;6333499;22;20921;-86
2022/05/19 12:36:10;;;;;;;1999.90;708.35;;;;;;;;;;6307399;22;20393;-85
2022/05/19 12:38:37;;;;;;;1999.90;723.67;;;;;;;;;;6333461;22;21251;-87
2022/05/19 12:41:05;;;;;;;1999.90;712.22;;;;;;;;;;6335737;22;20450;-88
2022/05/19 12:43:31;;;;;;;1999.90;722.90;;;;;;;;;;6336452;22;20415;-89
2022/05/19 12:45:59;;;;;;;1999.90;724.28;;;;;;;;;;6337331;22;20055;-90
2022/05/19 12:48:34;;;;;;;1999.90;730.92;;;;;;;;;;6337859;22;20337;-86
2022/05/19 12:51:07;;;;;;;1999.90;719.42;;;;;;;;;;6339093;22;20048;-88
2022/05/19 12:53:39;;;;;;;1999.90;737.47;;;;;;;;;;6337265;22;20952;-86
2022/05/19 12:56:05;;;;;;;1999.90;727.90;;;;;;;;;;6310467;22;20007;-85
2022/05/19 12:58:34;;;;;;;1999.90;729.45;;;;;;;;;;6335233;22;20377;-85
2022/05/19 13:01:13;;;;;;;1999.90;717.33;;;;;;;;;;6309678;22;20034;-86
2022/05/19 13:03:41;;;;;;;1999.90;737.25;;;;;;;;;;6336166;22;20373;-86
2022/05/19 13:06:07;;;;;;;1999.90;721.85;;;;;;;;;;6335246;22;20073;-86
2022/05/19 13:08:33;;;;;;;1999.90;731.08;;;;;;;;;;6333067;22;20361;-85
2022/05/19 13:11:02;;;;;;;1999.90;739.47;;;;;;;;;;6334964;22;20379;-87
2022/05/19 13:13:31;;;;;;;1999.90;748.90;;;;;;;;;;6333261;22;20903;-86
2022/05/19 13:16:02;;;;;;;1999.90;745.80;;;;;;;;;;6333447;22;20800;-86
2022/05/19 13:18:36;;;;;;;1999.90;744.08;;;;;;;;;;6305677;22;20345;-86
2022/05/19 13:21:13;;;;;;;1999.90;724.78;;;;;;;;;;6307101;22;20003;-85
2022/05/19 13:23:40;;;;;;;1999.90;740.63;;;;;;;;;;6333789;22;20794;-86
2022/05/19 13:26:13;;;;;;;1999.90;740.47;;;;;;;;;;6335972;22;20002;-85
2022/05/19 13:31:28;;;;;;;1999.90;740.85;;;;;;;;;;6334481;22;20770;-85
2022/05/19 13:33:59;;;;;;;1999.90;738.00;;;;;;;;;;6335121;22;20818;-86
2022/05/19 13:36:31;;;;;;;1999.90;728.40;;;;;;;;;;6335860;22;20017;-85
2022/05/19 13:39:05;;;;;;;1999.90;746.10;;;;;;;;;;6334356;22;20337;-87
2022/05/19 13:41:32;;;;;;;1999.90;729.58;;;;;;;;;;6334831;22;20003;-85
2022/05/19 13:43:58;;;;;;;1999.90;742.90;;;;;;;;;;6332685;22;20456;-85
2022/05/19 13:46:25;;;;;;;1999.90;735.53;;;;;;;;;;6333580;22;20349;-86
2022/05/19 13:48:59;;;;;;;1999.90;737.90;;;;;;;;;;6337370;22;20345;-85
2022/05/19 13:51:32;;;;;;;1999.90;725.78;;;;;;;;;;6340528;22;19999;-87
2022/05/19 13:54:00;;;;;;;1999.90;755.03;;;;;;;;;;6337008;22;20449;-86
2022/05/19 13:56:34;;;;;;;1999.90;748.58;;;;;;;;;;6333488;22;20337;-85
2022/05/19 13:59:01;;;;;;;1999.90;745.25;;;;;;;;;;6335192;22;20901;-85
2022/05/19 14:01:37;;;;;;;1999.90;748.27;;;;;;;;;;6334344;22;20386;-85
2022/05/19 14:04:06;;;;;;;1999.90;731.47;;;;;;;;;;6336388;22;20007;-86
2022/05/19 14:06:33;;;;;;;1999.90;766.72;;;;;;;;;;6334101;22;21026;-85
2022/05/19 14:08:59;;;;;;;1999.90;758.63;;;;;;;;;;6334116;22;20336;-86
2022/05/19 14:11:26;;;;;;;1999.90;749.50;;;;;;;;;;6336171;22;20337;-85
2022/05/19 14:13:54;;;;;;;1999.90;744.63;;;;;;;;;;6342445;22;20813;-86
2022/05/19 14:16:21;;;;;;;1999.90;728.28;;;;;;;;;;6347169;22;20031;-85
2022/05/19 14:18:50;;;;;;;1999.90;746.45;;;;;;;;;;6340382;22;20341;-84